sensor_id;sensor_type;location;lat;lon;timestamp;P1;durP1;ratioP1;P2;durP2;ratioP2
66523;SDS011;53350;52.210;5.160;2023-09-18T00:01:38;24.73;;;21.50;;
66523;SDS011;53350;52.210;5.160;2023-09-18T00:04:05;26.05;;;20.58;;
66523;SDS011;53350;52.210;5.160;2023-09-18T00:06:32;23.40;;;20.15;;
66523;SDS011;53350;52.210;5.160;2023-09-18T00:08:58;25.88;;;20.42;;
66523;SDS011;53350;52.210;5.160;2023-09-18T00:11:25;23.80;;;19.65;;
66523;SDS011;53350;52.210;5.160;2023-09-18T00:13:52;24.25;;;20.45;;
66523;SDS011;53350;52.210;5.160;2023-09-18T00:16:19;24.73;;;20.15;;
66523;SDS011;53350;52.210;5.160;2023-09-18T00:18:45;25.40;;;20.20;;
66523;SDS011;53350;52.210;5.160;2023-09-18T00:21:12;25.25;;;20.00;;
66523;SDS011;53350;52.210;5.160;2023-09-18T00:23:38;23.88;;;19.77;;
66523;SDS011;53350;52.210;5.160;2023-09-18T00:26:04;24.55;;;19.05;;
66523;SDS011;53350;52.210;5.160;2023-09-18T00:28:31;23.67;;;19.58;;
66523;SDS011;53350;52.210;5.160;2023-09-18T00:30:59;23.20;;;19.30;;
66523;SDS011;53350;52.210;5.160;2023-09-18T00:35:52;21.25;;;18.15;;
66523;SDS011;53350;52.210;5.160;2023-09-18T00:38:18;23.15;;;18.25;;
66523;SDS011;53350;52.210;5.160;2023-09-18T00:40:45;22.80;;;19.02;;
66523;SDS011;53350;52.210;5.160;2023-09-18T00:43:12;22.77;;;18.50;;
66523;SDS011;53350;52.210;5.160;2023-09-18T00:45:39;23.58;;;19.20;;
66523;SDS011;53350;52.210;5.160;2023-09-18T00:48:09;20.45;;;18.25;;
66523;SDS011;53350;52.210;5.160;2023-09-18T00:50:37;23.15;;;19.13;;
66523;SDS011;53350;52.210;5.160;2023-09-18T00:53:04;21.55;;;18.52;;
66523;SDS011;53350;52.210;5.160;2023-09-18T00:55:33;25.60;;;19.05;;
66523;SDS011;53350;52.210;5.160;2023-09-18T00:58:02;20.75;;;17.48;;
66523;SDS011;53350;52.210;5.160;2023-09-18T01:00:29;25.77;;;19.75;;
66523;SDS011;53350;52.210;5.160;2023-09-18T01:02:56;23.88;;;18.45;;
66523;SDS011;53350;52.210;5.160;2023-09-18T01:05:23;26.33;;;18.83;;
66523;SDS011;53350;52.210;5.160;2023-09-18T01:07:50;24.17;;;18.95;;
66523;SDS011;53350;52.210;5.160;2023-09-18T01:10:17;22.67;;;19.35;;
66523;SDS011;53350;52.210;5.160;2023-09-18T01:12:44;21.53;;;18.60;;
66523;SDS011;53350;52.210;5.160;2023-09-18T01:15:15;23.35;;;18.55;;
66523;SDS011;53350;52.210;5.160;2023-09-18T01:17:48;20.63;;;18.02;;
66523;SDS011;53350;52.210;5.160;2023-09-18T01:20:14;21.05;;;18.85;;
66523;SDS011;53350;52.210;5.160;2023-09-18T01:22:42;25.13;;;18.98;;
66523;SDS011;53350;52.210;5.160;2023-09-18T01:25:09;20.27;;;17.50;;
66523;SDS011;53350;52.210;5.160;2023-09-18T01:27:35;26.17;;;17.52;;
66523;SDS011;53350;52.210;5.160;2023-09-18T01:30:02;22.95;;;17.85;;
66523;SDS011;53350;52.210;5.160;2023-09-18T01:32:30;22.65;;;18.33;;
66523;SDS011;53350;52.210;5.160;2023-09-18T01:34:59;23.77;;;18.60;;
66523;SDS011;53350;52.210;5.160;2023-09-18T01:37:28;23.17;;;18.67;;
66523;SDS011;53350;52.210;5.160;2023-09-18T01:39:57;21.88;;;18.02;;
66523;SDS011;53350;52.210;5.160;2023-09-18T01:42:24;21.65;;;17.63;;
66523;SDS011;53350;52.210;5.160;2023-09-18T01:44:51;23.25;;;17.90;;
66523;SDS011;53350;52.210;5.160;2023-09-18T01:47:19;21.85;;;17.55;;
66523;SDS011;53350;52.210;5.160;2023-09-18T01:49:48;22.35;;;17.90;;
66523;SDS011;53350;52.210;5.160;2023-09-18T01:52:15;20.95;;;17.45;;
66523;SDS011;53350;52.210;5.160;2023-09-18T01:54:41;22.45;;;17.20;;
66523;SDS011;53350;52.210;5.160;2023-09-18T01:57:09;20.98;;;17.13;;
66523;SDS011;53350;52.210;5.160;2023-09-18T01:59:37;22.30;;;17.42;;
66523;SDS011;53350;52.210;5.160;2023-09-18T02:02:04;21.15;;;16.42;;
66523;SDS011;53350;52.210;5.160;2023-09-18T02:04:32;23.20;;;16.98;;
66523;SDS011;53350;52.210;5.160;2023-09-18T02:06:59;24.13;;;17.38;;
66523;SDS011;53350;52.210;5.160;2023-09-18T02:09:25;25.10;;;17.50;;
66523;SDS011;53350;52.210;5.160;2023-09-18T02:11:52;20.08;;;17.92;;
66523;SDS011;53350;52.210;5.160;2023-09-18T02:14:19;22.50;;;18.00;;
66523;SDS011;53350;52.210;5.160;2023-09-18T02:19:14;21.27;;;17.67;;
66523;SDS011;53350;52.210;5.160;2023-09-18T02:21:42;27.05;;;17.17;;
66523;SDS011;53350;52.210;5.160;2023-09-18T02:24:08;25.08;;;18.10;;
66523;SDS011;53350;52.210;5.160;2023-09-18T02:26:35;22.10;;;17.90;;
66523;SDS011;53350;52.210;5.160;2023-09-18T02:29:02;31.25;;;18.95;;
66523;SDS011;53350;52.210;5.160;2023-09-18T02:31:31;26.85;;;19.13;;
66523;SDS011;53350;52.210;5.160;2023-09-18T02:33:58;26.00;;;19.08;;
66523;SDS011;53350;52.210;5.160;2023-09-18T02:36:24;21.20;;;18.23;;
66523;SDS011;53350;52.210;5.160;2023-09-18T02:38:51;28.63;;;18.95;;
66523;SDS011;53350;52.210;5.160;2023-09-18T02:41:17;21.95;;;17.50;;
66523;SDS011;53350;52.210;5.160;2023-09-18T02:43:44;22.83;;;18.02;;
66523;SDS011;53350;52.210;5.160;2023-09-18T02:46:10;24.60;;;17.08;;
66523;SDS011;53350;52.210;5.160;2023-09-18T02:48:38;21.50;;;17.45;;
66523;SDS011;53350;52.210;5.160;2023-09-18T02:51:04;22.70;;;16.75;;
66523;SDS011;53350;52.210;5.160;2023-09-18T02:53:31;22.92;;;17.50;;
66523;SDS011;53350;52.210;5.160;2023-09-18T02:55:58;25.63;;;17.77;;
66523;SDS011;53350;52.210;5.160;2023-09-18T02:58:25;23.88;;;17.02;;
66523;SDS011;53350;52.210;5.160;2023-09-18T03:00:54;25.73;;;17.88;;
66523;SDS011;53350;52.210;5.160;2023-09-18T03:03:21;28.42;;;17.00;;
66523;SDS011;53350;52.210;5.160;2023-09-18T03:05:49;20.98;;;17.48;;
66523;SDS011;53350;52.210;5.160;2023-09-18T03:08:15;26.20;;;16.95;;
66523;SDS011;53350;52.210;5.160;2023-09-18T03:10:42;24.48;;;17.67;;
66523;SDS011;53350;52.210;5.160;2023-09-18T03:13:10;23.60;;;17.58;;
66523;SDS011;53350;52.210;5.160;2023-09-18T03:15:37;27.40;;;17.60;;
66523;SDS011;53350;52.210;5.160;2023-09-18T03:18:04;26.30;;;17.55;;
66523;SDS011;53350;52.210;5.160;2023-09-18T03:20:32;21.05;;;17.17;;
66523;SDS011;53350;52.210;5.160;2023-09-18T03:23:01;20.65;;;15.45;;
66523;SDS011;53350;52.210;5.160;2023-09-18T03:25:28;25.30;;;17.23;;
66523;SDS011;53350;52.210;5.160;2023-09-18T03:27:56;22.80;;;17.35;;
66523;SDS011;53350;52.210;5.160;2023-09-18T03:30:24;27.05;;;17.45;;
66523;SDS011;53350;52.210;5.160;2023-09-18T03:32:50;21.25;;;16.92;;
66523;SDS011;53350;52.210;5.160;2023-09-18T03:35:18;22.73;;;16.90;;
66523;SDS011;53350;52.210;5.160;2023-09-18T03:37:45;25.27;;;17.25;;
66523;SDS011;53350;52.210;5.160;2023-09-18T03:40:13;25.60;;;17.15;;
66523;SDS011;53350;52.210;5.160;2023-09-18T03:42:40;22.98;;;17.17;;
66523;SDS011;53350;52.210;5.160;2023-09-18T03:45:06;22.05;;;16.55;;
66523;SDS011;53350;52.210;5.160;2023-09-18T03:47:34;22.00;;;16.85;;
66523;SDS011;53350;52.210;5.160;2023-09-18T03:50:01;26.80;;;17.88;;
66523;SDS011;53350;52.210;5.160;2023-09-18T03:52:27;26.98;;;17.90;;
66523;SDS011;53350;52.210;5.160;2023-09-18T03:54:54;25.02;;;18.17;;
66523;SDS011;53350;52.210;5.160;2023-09-18T03:57:22;24.88;;;18.42;;
66523;SDS011;53350;52.210;5.160;2023-09-18T03:59:48;28.45;;;18.65;;
66523;SDS011;53350;52.210;5.160;2023-09-18T04:02:15;26.05;;;19.85;;
66523;SDS011;53350;52.210;5.160;2023-09-18T04:04:41;31.42;;;19.23;;
66523;SDS011;53350;52.210;5.160;2023-09-18T04:07:08;29.65;;;20.60;;
66523;SDS011;53350;52.210;5.160;2023-09-18T04:09:35;28.50;;;21.03;;
66523;SDS011;53350;52.210;5.160;2023-09-18T04:12:01;29.05;;;20.50;;
66523;SDS011;53350;52.210;5.160;2023-09-18T04:14:31;26.05;;;19.80;;
66523;SDS011;53350;52.210;5.160;2023-09-18T04:16:58;26.05;;;19.30;;
66523;SDS011;53350;52.210;5.160;2023-09-18T04:19:25;27.30;;;17.23;;
66523;SDS011;53350;52.210;5.160;2023-09-18T04:21:51;26.15;;;18.77;;
66523;SDS011;53350;52.210;5.160;2023-09-18T04:24:18;19.90;;;14.00;;
66523;SDS011;53350;52.210;5.160;2023-09-18T04:26:44;18.48;;;13.65;;
66523;SDS011;53350;52.210;5.160;2023-09-18T04:29:11;8.32;;;5.18;;
66523;SDS011;53350;52.210;5.160;2023-09-18T04:31:38;7.97;;;2.80;;
66523;SDS011;53350;52.210;5.160;2023-09-18T04:34:05;7.25;;;2.72;;
66523;SDS011;53350;52.210;5.160;2023-09-18T04:36:31;7.53;;;2.10;;
66523;SDS011;53350;52.210;5.160;2023-09-18T04:38:58;5.25;;;1.70;;
66523;SDS011;53350;52.210;5.160;2023-09-18T04:41:24;4.93;;;2.20;;
66523;SDS011;53350;52.210;5.160;2023-09-18T04:43:51;9.13;;;2.78;;
66523;SDS011;53350;52.210;5.160;2023-09-18T04:46:17;7.30;;;3.78;;
66523;SDS011;53350;52.210;5.160;2023-09-18T04:48:45;17.27;;;5.47;;
66523;SDS011;53350;52.210;5.160;2023-09-18T04:51:11;12.68;;;5.13;;
66523;SDS011;53350;52.210;5.160;2023-09-18T04:53:38;11.18;;;4.50;;
66523;SDS011;53350;52.210;5.160;2023-09-18T04:56:04;9.57;;;4.85;;
66523;SDS011;53350;52.210;5.160;2023-09-18T04:58:31;9.45;;;4.85;;
66523;SDS011;53350;52.210;5.160;2023-09-18T05:00:58;14.27;;;6.53;;
66523;SDS011;53350;52.210;5.160;2023-09-18T05:03:26;11.40;;;6.53;;
66523;SDS011;53350;52.210;5.160;2023-09-18T05:08:22;12.27;;;6.43;;
66523;SDS011;53350;52.210;5.160;2023-09-18T05:10:48;13.98;;;7.00;;
66523;SDS011;53350;52.210;5.160;2023-09-18T05:13:15;15.88;;;7.60;;
66523;SDS011;53350;52.210;5.160;2023-09-18T05:15:42;13.60;;;6.95;;
66523;SDS011;53350;52.210;5.160;2023-09-18T05:18:08;15.55;;;7.05;;
66523;SDS011;53350;52.210;5.160;2023-09-18T05:20:35;16.75;;;7.80;;
66523;SDS011;53350;52.210;5.160;2023-09-18T05:23:03;15.90;;;7.68;;
66523;SDS011;53350;52.210;5.160;2023-09-18T05:25:29;14.35;;;7.30;;
66523;SDS011;53350;52.210;5.160;2023-09-18T05:27:57;11.73;;;8.00;;
66523;SDS011;53350;52.210;5.160;2023-09-18T05:30:25;11.15;;;8.05;;
66523;SDS011;53350;52.210;5.160;2023-09-18T05:32:54;17.50;;;9.00;;
66523;SDS011;53350;52.210;5.160;2023-09-18T05:35:20;14.23;;;9.32;;
66523;SDS011;53350;52.210;5.160;2023-09-18T05:37:48;16.30;;;9.25;;
66523;SDS011;53350;52.210;5.160;2023-09-18T05:40:17;14.30;;;9.25;;
66523;SDS011;53350;52.210;5.160;2023-09-18T05:42:43;16.25;;;10.20;;
66523;SDS011;53350;52.210;5.160;2023-09-18T05:45:10;17.40;;;10.85;;
66523;SDS011;53350;52.210;5.160;2023-09-18T05:47:37;16.48;;;10.18;;
66523;SDS011;53350;52.210;5.160;2023-09-18T05:50:04;16.88;;;10.05;;
66523;SDS011;53350;52.210;5.160;2023-09-18T05:52:31;18.35;;;11.35;;
66523;SDS011;53350;52.210;5.160;2023-09-18T05:54:58;18.77;;;11.63;;
66523;SDS011;53350;52.210;5.160;2023-09-18T05:57:26;18.77;;;11.93;;
66523;SDS011;53350;52.210;5.160;2023-09-18T05:59:53;17.70;;;11.45;;
66523;SDS011;53350;52.210;5.160;2023-09-18T06:02:20;17.15;;;10.85;;
66523;SDS011;53350;52.210;5.160;2023-09-18T06:04:46;18.02;;;11.23;;
66523;SDS011;53350;52.210;5.160;2023-09-18T06:07:13;16.83;;;10.02;;
66523;SDS011;53350;52.210;5.160;2023-09-18T06:09:39;19.02;;;10.38;;
66523;SDS011;53350;52.210;5.160;2023-09-18T06:12:06;16.45;;;10.68;;
66523;SDS011;53350;52.210;5.160;2023-09-18T06:14:36;19.73;;;10.35;;
66523;SDS011;53350;52.210;5.160;2023-09-18T06:17:03;19.98;;;10.85;;
66523;SDS011;53350;52.210;5.160;2023-09-18T06:19:30;19.75;;;11.60;;
66523;SDS011;53350;52.210;5.160;2023-09-18T06:21:58;22.15;;;11.45;;
66523;SDS011;53350;52.210;5.160;2023-09-18T06:24:24;19.58;;;10.85;;
66523;SDS011;53350;52.210;5.160;2023-09-18T06:26:50;17.42;;;11.82;;
66523;SDS011;53350;52.210;5.160;2023-09-18T06:29:18;20.07;;;11.90;;
66523;SDS011;53350;52.210;5.160;2023-09-18T06:31:45;19.58;;;12.95;;
66523;SDS011;53350;52.210;5.160;2023-09-18T06:34:12;20.98;;;12.80;;
66523;SDS011;53350;52.210;5.160;2023-09-18T06:36:39;19.88;;;12.48;;
66523;SDS011;53350;52.210;5.160;2023-09-18T06:39:05;18.17;;;11.48;;
66523;SDS011;53350;52.210;5.160;2023-09-18T06:41:32;19.95;;;11.85;;
66523;SDS011;53350;52.210;5.160;2023-09-18T06:43:58;23.40;;;12.30;;
66523;SDS011;53350;52.210;5.160;2023-09-18T06:46:27;17.60;;;11.85;;
66523;SDS011;53350;52.210;5.160;2023-09-18T06:48:55;20.58;;;12.65;;
66523;SDS011;53350;52.210;5.160;2023-09-18T06:51:22;16.38;;;11.18;;
66523;SDS011;53350;52.210;5.160;2023-09-18T06:53:48;20.25;;;10.73;;
66523;SDS011;53350;52.210;5.160;2023-09-18T06:56:15;18.27;;;11.38;;
66523;SDS011;53350;52.210;5.160;2023-09-18T06:58:41;20.85;;;11.25;;
66523;SDS011;53350;52.210;5.160;2023-09-18T07:01:08;16.05;;;10.93;;
66523;SDS011;53350;52.210;5.160;2023-09-18T07:03:35;18.27;;;11.32;;
66523;SDS011;53350;52.210;5.160;2023-09-18T07:06:03;18.85;;;10.80;;
66523;SDS011;53350;52.210;5.160;2023-09-18T07:10:56;17.42;;;10.20;;
66523;SDS011;53350;52.210;5.160;2023-09-18T07:13:22;15.93;;;9.98;;
66523;SDS011;53350;52.210;5.160;2023-09-18T07:15:48;13.82;;;9.23;;
66523;SDS011;53350;52.210;5.160;2023-09-18T07:18:15;14.90;;;9.52;;
66523;SDS011;53350;52.210;5.160;2023-09-18T07:20:43;14.18;;;9.35;;
66523;SDS011;53350;52.210;5.160;2023-09-18T07:23:11;17.15;;;8.95;;
66523;SDS011;53350;52.210;5.160;2023-09-18T07:25:38;15.23;;;9.02;;
66523;SDS011;53350;52.210;5.160;2023-09-18T07:28:05;15.52;;;9.57;;
66523;SDS011;53350;52.210;5.160;2023-09-18T07:30:32;17.60;;;9.20;;
66523;SDS011;53350;52.210;5.160;2023-09-18T07:33:01;13.00;;;9.07;;
66523;SDS011;53350;52.210;5.160;2023-09-18T07:35:27;15.55;;;9.27;;
66523;SDS011;53350;52.210;5.160;2023-09-18T07:37:54;13.55;;;8.93;;
66523;SDS011;53350;52.210;5.160;2023-09-18T07:40:22;16.02;;;8.95;;
66523;SDS011;53350;52.210;5.160;2023-09-18T07:42:48;15.60;;;8.90;;
66523;SDS011;53350;52.210;5.160;2023-09-18T07:45:14;14.10;;;9.43;;
66523;SDS011;53350;52.210;5.160;2023-09-18T07:47:42;15.10;;;9.52;;
66523;SDS011;53350;52.210;5.160;2023-09-18T07:50:09;14.13;;;9.25;;
66523;SDS011;53350;52.210;5.160;2023-09-18T07:52:35;14.73;;;9.25;;
66523;SDS011;53350;52.210;5.160;2023-09-18T07:55:02;13.35;;;9.23;;
66523;SDS011;53350;52.210;5.160;2023-09-18T07:57:30;13.80;;;9.45;;
66523;SDS011;53350;52.210;5.160;2023-09-18T07:59:59;15.38;;;9.02;;
66523;SDS011;53350;52.210;5.160;2023-09-18T08:02:31;16.35;;;9.25;;
66523;SDS011;53350;52.210;5.160;2023-09-18T08:07:27;13.95;;;8.88;;
66523;SDS011;53350;52.210;5.160;2023-09-18T08:09:54;10.63;;;7.35;;
66523;SDS011;53350;52.210;5.160;2023-09-18T08:12:20;20.65;;;7.65;;
66523;SDS011;53350;52.210;5.160;2023-09-18T08:14:48;12.35;;;7.25;;
66523;SDS011;53350;52.210;5.160;2023-09-18T08:17:15;13.68;;;7.65;;
66523;SDS011;53350;52.210;5.160;2023-09-18T08:19:41;11.27;;;7.55;;
66523;SDS011;53350;52.210;5.160;2023-09-18T08:22:09;12.73;;;8.32;;
66523;SDS011;53350;52.210;5.160;2023-09-18T08:24:36;13.27;;;7.80;;
66523;SDS011;53350;52.210;5.160;2023-09-18T08:27:03;11.80;;;7.57;;
66523;SDS011;53350;52.210;5.160;2023-09-18T08:29:30;10.45;;;7.25;;
66523;SDS011;53350;52.210;5.160;2023-09-18T08:31:58;12.48;;;8.20;;
66523;SDS011;53350;52.210;5.160;2023-09-18T08:34:24;10.00;;;7.55;;
66523;SDS011;53350;52.210;5.160;2023-09-18T08:36:51;11.40;;;7.63;;
66523;SDS011;53350;52.210;5.160;2023-09-18T08:39:17;14.27;;;7.60;;
66523;SDS011;53350;52.210;5.160;2023-09-18T08:41:45;14.75;;;7.63;;
66523;SDS011;53350;52.210;5.160;2023-09-18T08:44:20;11.73;;;6.70;;
66523;SDS011;53350;52.210;5.160;2023-09-18T08:46:52;11.82;;;6.60;;
66523;SDS011;53350;52.210;5.160;2023-09-18T08:49:20;13.32;;;6.47;;
66523;SDS011;53350;52.210;5.160;2023-09-18T08:51:48;11.75;;;5.13;;
66523;SDS011;53350;52.210;5.160;2023-09-18T08:54:16;8.40;;;5.80;;
66523;SDS011;53350;52.210;5.160;2023-09-18T08:56:42;11.70;;;6.28;;
66523;SDS011;53350;52.210;5.160;2023-09-18T08:59:09;10.75;;;4.65;;
66523;SDS011;53350;52.210;5.160;2023-09-18T09:01:38;11.73;;;5.07;;
66523;SDS011;53350;52.210;5.160;2023-09-18T09:04:05;9.80;;;5.68;;
66523;SDS011;53350;52.210;5.160;2023-09-18T09:06:32;13.38;;;5.20;;
66523;SDS011;53350;52.210;5.160;2023-09-18T09:09:01;8.38;;;5.18;;
66523;SDS011;53350;52.210;5.160;2023-09-18T09:11:27;9.05;;;5.10;;
66523;SDS011;53350;52.210;5.160;2023-09-18T09:14:09;10.20;;;4.47;;
66523;SDS011;53350;52.210;5.160;2023-09-18T09:16:41;8.93;;;4.37;;
66523;SDS011;53350;52.210;5.160;2023-09-18T09:19:12;9.68;;;4.82;;
66523;SDS011;53350;52.210;5.160;2023-09-18T09:21:40;8.57;;;4.38;;
66523;SDS011;53350;52.210;5.160;2023-09-18T09:24:08;12.30;;;5.05;;
66523;SDS011;53350;52.210;5.160;2023-09-18T09:26:39;11.57;;;4.43;;
66523;SDS011;53350;52.210;5.160;2023-09-18T09:29:14;8.93;;;3.88;;
66523;SDS011;53350;52.210;5.160;2023-09-18T09:31:43;9.70;;;4.28;;
66523;SDS011;53350;52.210;5.160;2023-09-18T09:34:10;11.40;;;4.45;;
66523;SDS011;53350;52.210;5.160;2023-09-18T09:36:36;8.70;;;3.92;;
66523;SDS011;53350;52.210;5.160;2023-09-18T09:39:18;7.60;;;4.13;;
66523;SDS011;53350;52.210;5.160;2023-09-18T09:41:46;7.35;;;4.47;;
66523;SDS011;53350;52.210;5.160;2023-09-18T09:44:14;10.30;;;3.92;;
66523;SDS011;53350;52.210;5.160;2023-09-18T09:46:44;8.52;;;3.78;;
66523;SDS011;53350;52.210;5.160;2023-09-18T09:49:11;7.65;;;3.85;;
66523;SDS011;53350;52.210;5.160;2023-09-18T09:51:40;12.00;;;3.85;;
66523;SDS011;53350;52.210;5.160;2023-09-18T09:54:07;11.73;;;4.07;;
66523;SDS011;53350;52.210;5.160;2023-09-18T09:56:44;10.13;;;3.60;;
66523;SDS011;53350;52.210;5.160;2023-09-18T09:59:13;8.00;;;4.10;;
66523;SDS011;53350;52.210;5.160;2023-09-18T10:01:40;6.53;;;3.53;;
66523;SDS011;53350;52.210;5.160;2023-09-18T10:04:10;7.63;;;3.55;;
66523;SDS011;53350;52.210;5.160;2023-09-18T10:06:43;6.70;;;3.30;;
66523;SDS011;53350;52.210;5.160;2023-09-18T10:09:11;7.55;;;3.90;;
66523;SDS011;53350;52.210;5.160;2023-09-18T10:11:40;6.43;;;3.92;;
66523;SDS011;53350;52.210;5.160;2023-09-18T10:14:12;8.38;;;3.70;;
66523;SDS011;53350;52.210;5.160;2023-09-18T10:16:41;8.45;;;3.30;;
66523;SDS011;53350;52.210;5.160;2023-09-18T10:19:14;7.78;;;4.25;;
66523;SDS011;53350;52.210;5.160;2023-09-18T10:21:50;8.05;;;3.58;;
66523;SDS011;53350;52.210;5.160;2023-09-18T10:24:25;7.32;;;3.78;;
66523;SDS011;53350;52.210;5.160;2023-09-18T10:26:55;10.45;;;3.72;;
66523;SDS011;53350;52.210;5.160;2023-09-18T10:31:51;8.73;;;3.70;;
66523;SDS011;53350;52.210;5.160;2023-09-18T10:34:19;8.45;;;3.60;;
66523;SDS011;53350;52.210;5.160;2023-09-18T10:36:47;9.45;;;3.80;;
66523;SDS011;53350;52.210;5.160;2023-09-18T10:39:15;10.68;;;3.95;;
66523;SDS011;53350;52.210;5.160;2023-09-18T10:41:44;7.22;;;3.92;;
66523;SDS011;53350;52.210;5.160;2023-09-18T10:44:13;8.57;;;3.90;;
66523;SDS011;53350;52.210;5.160;2023-09-18T10:46:41;8.75;;;4.40;;
66523;SDS011;53350;52.210;5.160;2023-09-18T10:51:34;8.00;;;3.65;;
66523;SDS011;53350;52.210;5.160;2023-09-18T10:54:06;7.45;;;3.33;;
66523;SDS011;53350;52.210;5.160;2023-09-18T10:56:33;9.10;;;4.13;;
66523;SDS011;53350;52.210;5.160;2023-09-18T10:59:00;9.32;;;3.80;;
66523;SDS011;53350;52.210;5.160;2023-09-18T11:01:29;7.80;;;3.80;;
66523;SDS011;53350;52.210;5.160;2023-09-18T11:03:59;15.02;;;3.88;;
66523;SDS011;53350;52.210;5.160;2023-09-18T11:06:27;7.45;;;3.17;;
66523;SDS011;53350;52.210;5.160;2023-09-18T11:08:58;11.18;;;4.05;;
66523;SDS011;53350;52.210;5.160;2023-09-18T11:11:29;7.82;;;3.40;;
66523;SDS011;53350;52.210;5.160;2023-09-18T11:13:58;8.57;;;3.75;;
66523;SDS011;53350;52.210;5.160;2023-09-18T11:16:35;8.15;;;3.95;;
66523;SDS011;53350;52.210;5.160;2023-09-18T11:19:07;10.90;;;3.83;;
66523;SDS011;53350;52.210;5.160;2023-09-18T11:21:37;10.00;;;3.80;;
66523;SDS011;53350;52.210;5.160;2023-09-18T11:24:04;9.90;;;3.33;;
66523;SDS011;53350;52.210;5.160;2023-09-18T11:26:36;6.43;;;3.85;;
66523;SDS011;53350;52.210;5.160;2023-09-18T11:29:06;7.72;;;4.18;;
66523;SDS011;53350;52.210;5.160;2023-09-18T11:31:44;9.05;;;3.83;;
66523;SDS011;53350;52.210;5.160;2023-09-18T11:34:14;9.70;;;3.50;;
66523;SDS011;53350;52.210;5.160;2023-09-18T11:36:45;7.05;;;3.17;;
66523;SDS011;53350;52.210;5.160;2023-09-18T11:39:12;10.02;;;3.67;;
66523;SDS011;53350;52.210;5.160;2023-09-18T11:41:39;10.98;;;4.20;;
66523;SDS011;53350;52.210;5.160;2023-09-18T11:46:57;7.47;;;3.63;;
66523;SDS011;53350;52.210;5.160;2023-09-18T11:49:26;8.30;;;3.78;;
66523;SDS011;53350;52.210;5.160;2023-09-18T11:51:53;9.82;;;3.85;;
66523;SDS011;53350;52.210;5.160;2023-09-18T11:54:21;11.63;;;4.05;;
66523;SDS011;53350;52.210;5.160;2023-09-18T11:56:48;8.55;;;3.92;;
66523;SDS011;53350;52.210;5.160;2023-09-18T11:59:14;6.72;;;3.42;;
66523;SDS011;53350;52.210;5.160;2023-09-18T12:04:11;7.65;;;3.45;;
66523;SDS011;53350;52.210;5.160;2023-09-18T12:06:40;9.35;;;3.50;;
66523;SDS011;53350;52.210;5.160;2023-09-18T12:09:07;9.77;;;3.92;;
66523;SDS011;53350;52.210;5.160;2023-09-18T12:11:34;8.90;;;3.70;;
66523;SDS011;53350;52.210;5.160;2023-09-18T12:14:01;7.87;;;3.50;;
66523;SDS011;53350;52.210;5.160;2023-09-18T12:16:29;9.00;;;3.78;;
66523;SDS011;53350;52.210;5.160;2023-09-18T12:18:55;10.05;;;3.30;;
66523;SDS011;53350;52.210;5.160;2023-09-18T12:21:22;10.85;;;3.85;;
66523;SDS011;53350;52.210;5.160;2023-09-18T12:23:50;8.15;;;3.28;;
66523;SDS011;53350;52.210;5.160;2023-09-18T12:26:17;9.23;;;3.70;;
66523;SDS011;53350;52.210;5.160;2023-09-18T12:31:11;7.47;;;2.88;;
66523;SDS011;53350;52.210;5.160;2023-09-18T12:33:39;7.72;;;3.10;;
66523;SDS011;53350;52.210;5.160;2023-09-18T12:36:08;8.88;;;3.40;;
66523;SDS011;53350;52.210;5.160;2023-09-18T12:38:36;18.07;;;4.10;;
66523;SDS011;53350;52.210;5.160;2023-09-18T12:41:05;9.88;;;3.60;;
66523;SDS011;53350;52.210;5.160;2023-09-18T12:43:35;6.15;;;2.88;;
66523;SDS011;53350;52.210;5.160;2023-09-18T12:46:04;6.25;;;2.97;;
66523;SDS011;53350;52.210;5.160;2023-09-18T12:48:30;11.32;;;3.60;;
66523;SDS011;53350;52.210;5.160;2023-09-18T12:51:01;10.13;;;3.60;;
66523;SDS011;53350;52.210;5.160;2023-09-18T12:53:28;6.50;;;3.05;;
66523;SDS011;53350;52.210;5.160;2023-09-18T12:55:59;7.30;;;3.40;;
66523;SDS011;53350;52.210;5.160;2023-09-18T12:58:32;14.65;;;4.15;;
66523;SDS011;53350;52.210;5.160;2023-09-18T13:01:03;11.20;;;3.20;;
66523;SDS011;53350;52.210;5.160;2023-09-18T13:03:32;11.52;;;3.35;;
66523;SDS011;53350;52.210;5.160;2023-09-18T13:06:06;6.87;;;2.93;;
66523;SDS011;53350;52.210;5.160;2023-09-18T13:08:33;6.50;;;2.75;;
66523;SDS011;53350;52.210;5.160;2023-09-18T13:11:00;7.90;;;3.25;;
66523;SDS011;53350;52.210;5.160;2023-09-18T13:15:57;6.00;;;3.10;;
66523;SDS011;53350;52.210;5.160;2023-09-18T13:18:24;7.03;;;3.55;;
66523;SDS011;53350;52.210;5.160;2023-09-18T13:20:51;6.90;;;3.20;;
66523;SDS011;53350;52.210;5.160;2023-09-18T13:23:19;9.25;;;3.33;;
66523;SDS011;53350;52.210;5.160;2023-09-18T13:25:45;7.55;;;3.30;;
66523;SDS011;53350;52.210;5.160;2023-09-18T13:28:12;11.18;;;3.83;;
66523;SDS011;53350;52.210;5.160;2023-09-18T13:30:41;16.23;;;4.90;;
66523;SDS011;53350;52.210;5.160;2023-09-18T13:33:09;7.72;;;3.90;;
66523;SDS011;53350;52.210;5.160;2023-09-18T13:35:37;6.95;;;3.85;;
66523;SDS011;53350;52.210;5.160;2023-09-18T13:38:05;7.25;;;4.22;;
66523;SDS011;53350;52.210;5.160;2023-09-18T13:40:33;9.95;;;4.32;;
66523;SDS011;53350;52.210;5.160;2023-09-18T13:43:01;8.68;;;3.70;;
66523;SDS011;53350;52.210;5.160;2023-09-18T13:45:28;7.60;;;3.92;;
66523;SDS011;53350;52.210;5.160;2023-09-18T13:47:56;15.75;;;3.50;;
66523;SDS011;53350;52.210;5.160;2023-09-18T13:50:23;7.78;;;3.35;;
66523;SDS011;53350;52.210;5.160;2023-09-18T13:52:49;8.82;;;3.40;;
66523;SDS011;53350;52.210;5.160;2023-09-18T13:55:16;7.00;;;3.00;;
66523;SDS011;53350;52.210;5.160;2023-09-18T13:57:42;9.13;;;3.35;;
66523;SDS011;53350;52.210;5.160;2023-09-18T14:00:09;8.45;;;3.25;;
66523;SDS011;53350;52.210;5.160;2023-09-18T14:05:05;10.55;;;3.53;;
66523;SDS011;53350;52.210;5.160;2023-09-18T14:07:33;8.82;;;3.80;;
66523;SDS011;53350;52.210;5.160;2023-09-18T14:09:59;7.03;;;3.55;;
66523;SDS011;53350;52.210;5.160;2023-09-18T14:12:28;9.07;;;3.67;;
66523;SDS011;53350;52.210;5.160;2023-09-18T14:14:56;10.00;;;3.72;;
66523;SDS011;53350;52.210;5.160;2023-09-18T14:17:23;7.75;;;3.55;;
66523;SDS011;53350;52.210;5.160;2023-09-18T14:19:49;9.10;;;3.10;;
66523;SDS011;53350;52.210;5.160;2023-09-18T14:22:18;5.57;;;2.45;;
66523;SDS011;53350;52.210;5.160;2023-09-18T14:24:45;7.65;;;2.88;;
66523;SDS011;53350;52.210;5.160;2023-09-18T14:27:12;9.38;;;2.80;;
66523;SDS011;53350;52.210;5.160;2023-09-18T14:29:39;5.55;;;2.30;;
66523;SDS011;53350;52.210;5.160;2023-09-18T14:32:05;6.65;;;2.45;;
66523;SDS011;53350;52.210;5.160;2023-09-18T14:34:33;6.13;;;2.45;;
66523;SDS011;53350;52.210;5.160;2023-09-18T14:37:00;8.43;;;2.33;;
66523;SDS011;53350;52.210;5.160;2023-09-18T14:39:30;7.80;;;2.60;;
66523;SDS011;53350;52.210;5.160;2023-09-18T14:41:56;8.25;;;2.40;;
66523;SDS011;53350;52.210;5.160;2023-09-18T14:44:22;9.18;;;2.47;;
66523;SDS011;53350;52.210;5.160;2023-09-18T14:46:49;5.75;;;2.17;;
66523;SDS011;53350;52.210;5.160;2023-09-18T14:49:16;5.20;;;2.30;;
66523;SDS011;53350;52.210;5.160;2023-09-18T14:51:42;6.68;;;2.60;;
66523;SDS011;53350;52.210;5.160;2023-09-18T14:54:09;10.13;;;2.47;;
66523;SDS011;53350;52.210;5.160;2023-09-18T14:56:37;5.95;;;2.50;;
66523;SDS011;53350;52.210;5.160;2023-09-18T14:59:05;11.43;;;2.90;;
66523;SDS011;53350;52.210;5.160;2023-09-18T15:01:32;6.20;;;2.67;;
66523;SDS011;53350;52.210;5.160;2023-09-18T15:03:58;8.63;;;2.70;;
66523;SDS011;53350;52.210;5.160;2023-09-18T15:06:25;11.90;;;3.50;;